Time;durP1;ratioP1;P1;durP2;ratioP2;P2;SDS_P1;SDS_P2;PMS_P1;PMS_P2;Temp;Humidity;BMP_temperature;BMP_pressure;BME280_temperature;BME280_humidity;BME280_pressure;Samples;Min_cycle;Max_cycle;Signal;HPM_P1;HPM_P2
2023/04/14 00:00:58;;;;;;;3.60;2.03;;;6.20;99.90;;;;;;6109025;23;20463;-72
2023/04/14 00:03:23;;;;;;;3.87;1.97;;;6.10;99.90;;;;;;6108747;23;20581;-70
2023/04/14 00:05:49;;;;;;;4.50;1.63;;;6.00;99.90;;;;;;6109543;23;20520;-70
2023/04/14 00:08:15;;;;;;;3.93;2.37;;;6.00;99.90;;;;;;6109802;23;20141;-70
2023/04/14 00:10:40;;;;;;;2.80;0.97;;;6.00;99.90;;;;;;6098405;23;20148;-70
2023/04/14 00:13:06;;;;;;;2.43;1.17;;;6.00;99.90;;;;;;6110806;23;20427;-72
2023/04/14 00:15:31;;;;;;;1.50;0.97;;;5.90;99.90;;;;;;6109094;23;20141;-71
2023/04/14 00:17:57;;;;;;;3.80;1.20;;;5.90;99.90;;;;;;6108618;23;20145;-69
2023/04/14 00:20:22;;;;;;;1.90;0.90;;;5.80;99.90;;;;;;6110067;23;20440;-71
2023/04/14 00:22:48;;;;;;;1.97;1.03;;;5.80;99.90;;;;;;6108713;23;20340;-70
2023/04/14 00:25:14;;;;;;;5.30;1.30;;;5.80;99.90;;;;;;6111171;23;20137;-69
2023/04/14 00:27:39;;;;;;;1.97;1.00;;;5.70;99.90;;;;;;6114441;23;20188;-69
2023/04/14 00:30:07;;;;;;;3.43;1.13;;;5.70;99.90;;;;;;6112889;23;20153;-71
2023/04/14 00:32:33;;;;;;;2.13;0.97;;;5.70;99.90;;;;;;6113710;23;20487;-70
2023/04/14 00:35:02;;;;;;;2.23;0.97;;;5.60;99.90;;;;;;6098226;23;20440;-69
2023/04/14 00:37:27;;;;;;;1.53;1.10;;;5.60;99.90;;;;;;6108835;23;20368;-70
2023/04/14 00:39:53;;;;;;;2.40;1.10;;;5.60;99.90;;;;;;6108543;23;21073;-70
2023/04/14 00:42:18;;;;;;;2.87;1.17;;;5.50;99.90;;;;;;6109187;23;20184;-71
2023/04/14 00:44:46;;;;;;;1.20;0.70;;;5.50;99.90;;;;;;6098836;23;20147;-70
2023/04/14 00:47:12;;;;;;;1.33;0.93;;;5.50;99.90;;;;;;6109139;23;20152;-70
2023/04/14 00:49:38;;;;;;;1.20;0.97;;;5.50;99.90;;;;;;6109686;23;20384;-70
2023/04/14 00:52:05;;;;;;;2.50;1.60;;;5.50;99.90;;;;;;6102547;23;20172;-71
2023/04/14 00:54:32;;;;;;;3.70;1.57;;;5.50;99.90;;;;;;6098460;23;20145;-70
2023/04/14 00:56:59;;;;;;;3.60;1.70;;;5.40;99.90;;;;;;6109734;23;20439;-71
2023/04/14 00:59:27;;;;;;;4.70;1.73;;;5.50;99.90;;;;;;6098226;23;20369;-70
2023/04/14 01:01:53;;;;;;;4.33;2.33;;;5.50;99.90;;;;;;6097662;23;20404;-71
2023/04/14 01:04:20;;;;;;;5.33;2.20;;;5.60;99.90;;;;;;6109017;23;20665;-72
2023/04/14 01:06:45;;;;;;;5.20;2.23;;;5.60;99.90;;;;;;6100895;23;20472;-70
2023/04/14 01:09:11;;;;;;;5.53;2.80;;;5.70;99.90;;;;;;6100923;23;20381;-73
2023/04/14 01:11:47;;;;;;;6.47;3.27;;;5.70;99.90;;;;;;6109155;23;20169;-70
2023/04/14 01:14:42;;;;;;;5.23;3.00;;;5.80;99.90;;;;;;6111385;23;20379;-71
2023/04/14 01:17:39;;;;;;;8.60;3.10;;;5.70;99.90;;;;;;6099118;23;20400;-71
2023/04/14 01:20:24;;;;;;;4.97;2.70;;;5.70;99.90;;;;;;6090963;23;20833;-71
2023/04/14 01:22:57;;;;;;;6.60;3.03;;;5.70;99.90;;;;;;6097453;23;20439;-70
2023/04/14 01:25:52;;;;;;;8.00;4.60;;;5.70;99.90;;;;;;6109391;23;20379;-71
2023/04/14 01:28:41;;;;;;;6.53;3.77;;;5.70;99.90;;;;;;6097866;23;20383;-71
2023/04/14 01:31:40;;;;;;;4.70;2.73;;;5.80;99.90;;;;;;6108946;23;20381;-71
2023/04/14 01:34:28;;;;;;;5.50;3.00;;;5.70;99.90;;;;;;6097748;23;20472;-72
2023/04/14 01:37:29;;;;;;;7.33;2.70;;;5.60;99.90;;;;;;6098177;23;20404;-71
2023/04/14 01:39:59;;;;;;;3.53;2.63;;;5.50;99.90;;;;;;6109374;23;20463;-71
2023/04/14 01:42:31;;;;;;;3.23;2.20;;;5.40;99.90;;;;;;6097375;23;20455;-71
2023/04/14 01:45:03;;;;;;;6.07;2.83;;;5.30;99.90;;;;;;6108809;23;20365;-70
2023/04/14 01:47:30;;;;;;;6.23;2.90;;;5.30;99.90;;;;;;6097612;23;20460;-70
2023/04/14 01:49:59;;;;;;;3.83;2.60;;;5.20;99.90;;;;;;6099818;23;20385;-71
2023/04/14 01:52:27;;;;;;;2.97;2.23;;;5.20;99.90;;;;;;6100203;23;20420;-68
2023/04/14 01:54:55;;;;;;;5.17;3.10;;;5.10;99.90;;;;;;6111527;23;20664;-70
2023/04/14 01:57:25;;;;;;;5.93;3.00;;;5.10;99.90;;;;;;6111153;23;20877;-71
2023/04/14 01:59:53;;;;;;;4.07;2.20;;;5.10;99.90;;;;;;6099818;23;20389;-70
2023/04/14 02:02:21;;;;;;;5.20;2.40;;;5.00;99.90;;;;;;6099079;23;20416;-71
2023/04/14 02:04:48;;;;;;;3.57;2.80;;;4.90;99.90;;;;;;6110306;23;20663;-70
2023/04/14 02:07:20;;;;;;;6.10;2.30;;;4.90;99.90;;;;;;6111049;23;20427;-70
2023/04/14 02:09:48;;;;;;;4.70;2.00;;;4.80;99.90;;;;;;6112449;23;20608;-71
2023/04/14 02:12:16;;;;;;;4.17;2.30;;;4.90;99.90;;;;;;6100105;23;20412;-70
2023/04/14 02:14:45;;;;;;;3.83;2.10;;;4.90;99.90;;;;;;6111879;23;20415;-70
2023/04/14 02:17:12;;;;;;;2.57;1.87;;;4.80;99.90;;;;;;6110808;23;20372;-71
2023/04/14 02:19:38;;;;;;;2.90;2.47;;;4.80;99.90;;;;;;6099023;23;20388;-70
2023/04/14 02:22:04;;;;;;;4.07;1.80;;;4.80;99.90;;;;;;6103092;23;20439;-71
2023/04/14 02:24:29;;;;;;;5.13;2.30;;;4.80;99.90;;;;;;6110673;23;20383;-70
2023/04/14 02:27:10;;;;;;;5.63;2.50;;;4.80;99.90;;;;;;6111252;23;20133;-71
2023/04/14 02:29:39;;;;;;;5.67;2.70;;;4.80;99.90;;;;;;6110524;23;20136;-72
2023/04/14 02:32:10;;;;;;;3.33;1.87;;;4.80;99.90;;;;;;6110063;23;20710;-70
2023/04/14 02:34:43;;;;;;;5.53;2.27;;;4.80;99.90;;;;;;6098418;23;20392;-71
2023/04/14 02:37:15;;;;;;;3.13;2.83;;;4.70;99.90;;;;;;6099503;23;20440;-69
2023/04/14 02:39:44;;;;;;;2.70;1.93;;;4.70;99.90;;;;;;6099195;23;20385;-70
2023/04/14 02:42:17;;;;;;;3.27;2.10;;;4.60;99.90;;;;;;6109783;23;20430;-70
2023/04/14 02:44:48;;;;;;;3.10;2.00;;;4.70;99.90;;;;;;6102851;23;20391;-70
2023/04/14 02:47:29;;;;;;;4.00;2.20;;;4.70;99.90;;;;;;6103443;23;20381;-70
2023/04/14 02:50:00;;;;;;;3.67;1.60;;;4.60;99.90;;;;;;6100721;23;20836;-70
2023/04/14 02:52:30;;;;;;;6.77;2.80;;;4.50;99.90;;;;;;6101063;23;20416;-71
2023/04/14 02:54:57;;;;;;;2.20;2.00;;;4.50;99.90;;;;;;6114817;23;20456;-71
2023/04/14 02:57:25;;;;;;;3.67;2.97;;;4.50;99.90;;;;;;6104832;23;20412;-70
2023/04/14 02:59:51;;;;;;;5.40;2.60;;;4.50;99.90;;;;;;6104385;23;20800;-71
2023/04/14 03:02:19;;;;;;;3.83;2.87;;;4.50;99.90;;;;;;6099820;23;20444;-70
2023/04/14 03:04:52;;;;;;;4.87;3.07;;;4.50;99.90;;;;;;6098869;23;20385;-70
2023/04/14 03:07:32;;;;;;;4.60;2.93;;;4.50;99.90;;;;;;6098854;23;20638;-70
2023/04/14 03:09:58;;;;;;;3.80;2.40;;;4.40;99.90;;;;;;6098685;23;20391;-70
2023/04/14 03:12:24;;;;;;;2.50;1.90;;;4.40;99.90;;;;;;6109890;23;20479;-70
2023/04/14 03:14:50;;;;;;;5.60;2.20;;;4.40;99.90;;;;;;6109228;23;20361;-72
2023/04/14 03:17:19;;;;;;;3.50;2.20;;;4.40;99.90;;;;;;6099389;23;20381;-69
2023/04/14 03:19:49;;;;;;;3.13;2.10;;;4.30;99.90;;;;;;6098670;23;20840;-70
2023/04/14 03:22:19;;;;;;;4.27;2.10;;;4.30;99.90;;;;;;6099276;23;20436;-70
2023/04/14 03:24:45;;;;;;;2.10;1.57;;;4.30;99.90;;;;;;6099060;23;20384;-68
2023/04/14 03:27:17;;;;;;;1.80;1.60;;;4.30;99.90;;;;;;6075042;23;20393;-71
2023/04/14 03:29:47;;;;;;;5.07;2.73;;;4.20;99.90;;;;;;6111533;23;20369;-70
2023/04/14 03:32:15;;;;;;;8.33;3.57;;;4.20;99.90;;;;;;6098803;23;20480;-72
2023/04/14 03:34:42;;;;;;;8.03;3.80;;;4.20;99.90;;;;;;6110067;23;20428;-71
2023/04/14 03:37:09;;;;;;;5.70;2.93;;;4.20;99.90;;;;;;6098752;23;20539;-71
2023/04/14 03:39:37;;;;;;;7.87;3.30;;;4.20;99.90;;;;;;6108681;23;20468;-71
2023/04/14 03:42:06;;;;;;;4.20;2.67;;;4.20;99.90;;;;;;6097295;23;20692;-69
2023/04/14 03:44:35;;;;;;;5.13;2.33;;;4.20;99.90;;;;;;6098874;23;20404;-70
2023/04/14 03:47:02;;;;;;;4.57;2.10;;;4.10;99.90;;;;;;6098714;23;20381;-70
2023/04/14 03:49:33;;;;;;;3.77;2.10;;;4.10;99.90;;;;;;6109129;23;20376;-71
2023/04/14 03:52:04;;;;;;;4.03;2.40;;;4.10;99.90;;;;;;6102664;23;20415;-71
2023/04/14 03:54:32;;;;;;;5.43;2.30;;;4.00;99.90;;;;;;6098328;23;20940;-71
2023/04/14 03:56:59;;;;;;;5.87;2.57;;;4.10;99.90;;;;;;6098229;23;20420;-72
2023/04/14 03:59:26;;;;;;;6.27;2.90;;;4.10;99.90;;;;;;6099941;23;20388;-72
2023/04/14 04:01:53;;;;;;;7.13;3.97;;;4.10;99.90;;;;;;6099404;23;20409;-74
2023/04/14 04:04:22;;;;;;;10.50;3.87;;;4.10;99.90;;;;;;6108980;23;20412;-70
2023/04/14 04:06:49;;;;;;;4.27;3.23;;;4.20;99.90;;;;;;6097724;23;20385;-71
2023/04/14 04:09:16;;;;;;;6.63;4.73;;;4.20;99.90;;;;;;6109018;23;20361;-70
2023/04/14 04:11:44;;;;;;;6.70;4.57;;;4.20;99.90;;;;;;6097979;23;20873;-70
2023/04/14 04:14:12;;;;;;;9.30;5.63;;;4.20;99.90;;;;;;6097153;23;20388;-71
2023/04/14 04:16:41;;;;;;;7.47;5.30;;;4.30;99.90;;;;;;6098628;23;20840;-71
2023/04/14 04:19:09;;;;;;;9.20;5.40;;;4.30;99.90;;;;;;6098405;23;20440;-69
2023/04/14 04:21:41;;;;;;;10.00;6.10;;;4.30;99.90;;;;;;6097567;23;20526;-70
2023/04/14 04:24:09;;;;;;;12.03;5.57;;;4.30;99.90;;;;;;6097221;23;20530;-70
2023/04/14 04:26:36;;;;;;;8.93;5.90;;;4.40;99.90;;;;;;6098301;23;20444;-71
2023/04/14 04:29:04;;;;;;;10.03;4.93;;;4.30;99.90;;;;;;6109436;23;20373;-71
2023/04/14 04:31:31;;;;;;;4.80;3.70;;;4.30;99.90;;;;;;6098109;23;20415;-71
2023/04/14 04:33:58;;;;;;;6.17;3.60;;;4.10;99.90;;;;;;6110380;23;20418;-70
2023/04/14 04:36:30;;;;;;;8.47;4.80;;;4.10;99.90;;;;;;6098586;23;20416;-70
2023/04/14 04:38:56;;;;;;;12.07;5.53;;;4.00;99.90;;;;;;6110454;23;20428;-70
2023/04/14 04:41:25;;;;;;;5.70;3.57;;;4.00;99.90;;;;;;6098872;23;20415;-70
2023/04/14 04:43:52;;;;;;;6.10;5.50;;;4.00;99.90;;;;;;6099326;23;20710;-71
2023/04/14 04:46:37;;;;;;;6.10;3.90;;;3.90;99.90;;;;;;6115205;23;20377;-70
2023/04/14 04:49:02;;;;;;;7.90;3.80;;;4.00;99.90;;;;;;6116520;23;20353;-71
2023/04/14 04:51:28;;;;;;;6.10;3.73;;;4.00;99.90;;;;;;6100810;23;20696;-69
2023/04/14 04:53:54;;;;;;;6.70;3.30;;;4.00;99.90;;;;;;6110274;23;20160;-71
2023/04/14 04:56:20;;;;;;;5.17;3.30;;;4.00;99.90;;;;;;6109998;23;20340;-71
2023/04/14 04:58:47;;;;;;;6.20;2.77;;;3.90;99.90;;;;;;6109992;23;20147;-70
2023/04/14 05:01:14;;;;;;;5.17;3.30;;;4.00;99.90;;;;;;6110113;23;20384;-71
2023/04/14 05:03:40;;;;;;;7.60;3.80;;;4.00;99.90;;;;;;6110972;23;20428;-71
2023/04/14 05:06:06;;;;;;;6.40;3.67;;;4.00;99.90;;;;;;6110754;23;20415;-71
2023/04/14 05:08:31;;;;;;;4.70;3.10;;;4.00;99.90;;;;;;6112855;23;20133;-70
2023/04/14 05:10:57;;;;;;;7.73;3.73;;;4.10;99.90;;;;;;6099769;23;20586;-70
2023/04/14 05:13:22;;;;;;;3.80;3.10;;;4.20;99.90;;;;;;6110738;23;20550;-71
2023/04/14 05:15:48;;;;;;;5.23;3.37;;;4.20;99.90;;;;;;6112860;23;20205;-71
2023/04/14 05:18:14;;;;;;;5.30;3.40;;;4.20;99.90;;;;;;6110969;23;20152;-72
2023/04/14 05:20:40;;;;;;;3.93;3.20;;;4.30;99.90;;;;;;6109117;23;20157;-73
2023/04/14 05:23:06;;;;;;;6.03;3.63;;;4.30;99.90;;;;;;6108498;23;20456;-72
2023/04/14 05:25:31;;;;;;;6.13;3.80;;;4.40;99.90;;;;;;6063583;23;20287;-72
2023/04/14 05:27:57;;;;;;;5.53;3.70;;;4.50;99.90;;;;;;6086814;23;20380;-71
2023/04/14 05:30:23;;;;;;;4.63;2.70;;;4.50;99.90;;;;;;6119405;23;20144;-71
2023/04/14 05:32:49;;;;;;;7.70;3.07;;;4.60;99.90;;;;;;6098637;23;20172;-73
2023/04/14 05:35:15;;;;;;;8.90;3.43;;;4.60;99.90;;;;;;6115106;23;20172;-72
2023/04/14 05:37:41;;;;;;;4.77;3.17;;;4.70;99.90;;;;;;6114599;23;20412;-74
2023/04/14 05:40:07;;;;;;;4.23;2.90;;;4.70;99.90;;;;;;6090688;23;20798;-71
2023/04/14 05:42:35;;;;;;;5.57;2.83;;;4.80;99.90;;;;;;6123570;23;20176;-73
2023/04/14 05:45:01;;;;;;;6.03;3.60;;;4.80;99.90;;;;;;6114353;23;20387;-73
2023/04/14 05:47:27;;;;;;;10.23;3.23;;;5.00;99.90;;;;;;6089318;23;20385;-72
2023/04/14 05:49:52;;;;;;;8.63;4.73;;;5.00;99.90;;;;;;6119681;23;20163;-71
2023/04/14 05:52:18;;;;;;;9.93;4.00;;;5.20;99.90;;;;;;6088509;23;20200;-72
2023/04/14 05:54:44;;;;;;;4.93;3.10;;;5.20;99.90;;;;;;6123909;23;20452;-74
2023/04/14 05:57:09;;;;;;;3.00;2.60;;;5.30;99.90;;;;;;6090354;23;20137;-72
2023/04/14 05:59:35;;;;;;;8.00;3.17;;;5.40;99.90;;;;;;6090215;23;20148;-75
2023/04/14 06:02:05;;;;;;;9.37;3.80;;;5.40;99.90;;;;;;6066861;23;20232;-73
2023/04/14 06:04:31;;;;;;;11.23;3.47;;;5.60;99.90;;;;;;6094114;23;20243;-74
2023/04/14 06:06:57;;;;;;;6.80;4.20;;;5.70;99.90;;;;;;6089036;23;20794;-72
2023/04/14 06:09:23;;;;;;;8.70;3.37;;;5.80;99.90;;;;;;6110204;23;20377;-72
2023/04/14 06:11:49;;;;;;;11.23;4.30;;;6.00;99.90;;;;;;6087356;23;20397;-72
2023/04/14 06:14:15;;;;;;;4.17;2.70;;;6.20;99.90;;;;;;6087878;23;20145;-73
2023/04/14 06:16:41;;;;;;;5.90;3.33;;;6.40;99.90;;;;;;6123721;23;20817;-73
2023/04/14 06:19:07;;;;;;;3.90;2.63;;;6.60;99.90;;;;;;6113344;23;20164;-73
2023/04/14 06:21:32;;;;;;;2.90;1.97;;;6.80;99.90;;;;;;6113025;23;20247;-74
2023/04/14 06:23:58;;;;;;;9.23;3.70;;;6.90;99.90;;;;;;6088035;23;20176;-72
2023/04/14 06:26:24;;;;;;;6.90;4.03;;;7.00;99.90;;;;;;6122804;23;20137;-72
2023/04/14 06:28:50;;;;;;;5.45;3.05;;;7.10;99.90;;;;;;6087461;23;20399;-74
2023/04/14 06:31:16;;;;;;;5.23;2.90;;;7.10;99.90;;;;;;6113743;23;20145;-72
2023/04/14 06:33:42;;;;;;;6.60;2.67;;;7.20;99.90;;;;;;6091568;23;20408;-73
2023/04/14 06:36:08;;;;;;;8.77;3.03;;;7.20;99.90;;;;;;6089963;23;20144;-72
2023/04/14 06:38:34;;;;;;;8.80;2.50;;;7.20;99.90;;;;;;6086823;23;20414;-73
2023/04/14 06:41:00;;;;;;;7.23;4.60;;;7.20;99.90;;;;;;6113012;23;20391;-72
2023/04/14 06:43:27;;;;;;;8.93;4.20;;;7.20;99.90;;;;;;6123790;23;20420;-72
2023/04/14 06:45:53;;;;;;;7.50;4.27;;;7.20;99.90;;;;;;6087540;23;20224;-76
2023/04/14 06:48:19;;;;;;;8.10;3.90;;;7.20;99.90;;;;;;6124848;23;20373;-75
2023/04/14 06:50:52;;;;;;;6.10;3.60;;;7.20;99.90;;;;;;6090417;23;20137;-73
2023/04/14 06:53:18;;;;;;;8.57;3.97;;;7.20;99.90;;;;;;6092791;23;20416;-75
2023/04/14 06:55:57;;;;;;;4.37;2.67;;;7.20;99.90;;;;;;6115924;23;20444;-75
2023/04/14 06:58:31;;;;;;;5.30;2.20;;;7.20;99.90;;;;;;6093427;23;20380;-72
2023/04/14 07:01:01;;;;;;;3.60;2.30;;;7.10;99.90;;;;;;6115905;23;20392;-71
2023/04/14 07:03:31;;;;;;;10.57;3.70;;;7.10;99.90;;;;;;6091338;23;20448;-75
2023/04/14 07:06:10;;;;;;;6.77;3.13;;;7.20;99.90;;;;;;6118601;23;20409;-73
2023/04/14 07:08:37;;;;;;;3.40;2.00;;;7.20;99.90;;;;;;6089969;23;20396;-72
2023/04/14 07:11:09;;;;;;;8.97;3.57;;;7.30;99.90;;;;;;6114826;23;20377;-74
2023/04/14 07:13:36;;;;;;;10.73;6.70;;;7.30;99.90;;;;;;6092192;23;20395;-73
2023/04/14 07:16:23;;;;;;;5.97;4.00;;;7.40;99.90;;;;;;6114370;23;20424;-71
2023/04/14 07:18:57;;;;;;;5.83;3.50;;;7.50;99.90;;;;;;6093526;23;20393;-74
2023/04/14 07:21:23;;;;;;;5.80;3.50;;;7.60;99.90;;;;;;6092983;23;20408;-73
2023/04/14 07:23:49;;;;;;;5.47;2.57;;;7.70;99.90;;;;;;6092468;23;20432;-76
2023/04/14 07:26:15;;;;;;;13.67;3.87;;;7.70;99.90;;;;;;6067406;23;20161;-72
2023/04/14 07:28:41;;;;;;;7.50;3.43;;;7.80;99.90;;;;;;6091921;23;20774;-72
2023/04/14 07:31:09;;;;;;;10.60;3.80;;;7.90;99.90;;;;;;6089541;23;20465;-74
2023/04/14 07:33:39;;;;;;;7.40;3.40;;;7.90;99.90;;;;;;6088744;23;20411;-74
2023/04/14 07:36:06;;;;;;;12.03;3.53;;;8.10;99.90;;;;;;6092532;23;20412;-73
2023/04/14 07:38:31;;;;;;;7.90;3.60;;;8.00;99.90;;;;;;6118414;23;20391;-76
2023/04/14 07:41:04;;;;;;;8.20;3.43;;;8.10;99.90;;;;;;6118008;23;20396;-75
2023/04/14 07:43:36;;;;;;;9.70;3.60;;;8.20;99.90;;;;;;6116753;23;20184;-73
2023/04/14 07:46:03;;;;;;;9.80;3.93;;;8.30;99.90;;;;;;6117330;23;20412;-76
2023/04/14 07:48:33;;;;;;;7.23;2.90;;;8.40;99.90;;;;;;6096735;23;20635;-74
2023/04/14 07:50:59;;;;;;;10.57;4.40;;;8.50;99.90;;;;;;6094869;23;20411;-74
2023/04/14 07:53:26;;;;;;;9.00;3.50;;;8.60;99.90;;;;;;6092811;23;20400;-75
2023/04/14 07:55:51;;;;;;;7.13;4.47;;;8.60;99.90;;;;;;6092333;23;20404;-73
2023/04/14 07:58:17;;;;;;;5.80;4.20;;;8.80;99.90;;;;;;6092759;23;20451;-73
2023/04/14 08:00:46;;;;;;;5.97;3.80;;;8.80;99.90;;;;;;6093497;23;20205;-76
2023/04/14 08:03:12;;;;;;;8.57;3.93;;;8.90;99.90;;;;;;6089426;23;20468;-73
2023/04/14 08:05:40;;;;;;;5.40;3.07;;;9.00;99.90;;;;;;6088406;23;20376;-75
2023/04/14 08:08:13;;;;;;;10.00;4.30;;;9.10;99.90;;;;;;6093894;23;20160;-72
2023/04/14 08:10:40;;;;;;;7.50;4.13;;;9.10;99.90;;;;;;6091984;23;20550;-74
2023/04/14 08:13:09;;;;;;;11.80;3.80;;;9.20;99.90;;;;;;6089612;23;20401;-74
2023/04/14 08:15:36;;;;;;;8.20;3.47;;;9.20;99.90;;;;;;6088714;23;20388;-75
2023/04/14 08:18:02;;;;;;;6.63;3.80;;;9.30;99.90;;;;;;6065941;23;20453;-73
2023/04/14 08:20:28;;;;;;;9.50;3.67;;;9.40;99.90;;;;;;6089722;23;20389;-72
2023/04/14 08:22:55;;;;;;;3.97;3.10;;;9.60;99.90;;;;;;6090830;23;20265;-75
2023/04/14 08:25:21;;;;;;;4.53;3.90;;;9.60;99.90;;;;;;6085822;23;20389;-74
2023/04/14 08:27:47;;;;;;;5.47;3.40;;;9.70;99.50;;;;;;6089645;23;20385;-72
2023/04/14 08:30:13;;;;;;;8.27;3.60;;;9.80;99.30;;;;;;6088777;23;20137;-74
2023/04/14 08:32:39;;;;;;;6.50;3.77;;;9.80;97.20;;;;;;6088440;23;20188;-74
2023/04/14 08:35:06;;;;;;;6.33;3.40;;;9.80;95.70;;;;;;6113095;23;20384;-74
2023/04/14 08:37:32;;;;;;;4.83;2.70;;;9.90;94.80;;;;;;6092382;23;20467;-75
2023/04/14 08:39:58;;;;;;;11.40;3.87;;;10.00;92.60;;;;;;6091802;23;20156;-72
2023/04/14 08:42:24;;;;;;;9.80;3.00;;;10.10;93.40;;;;;;6093086;23;20417;-75
2023/04/14 08:44:53;;;;;;;5.97;2.83;;;10.10;92.60;;;;;;6071509;23;20167;-76
2023/04/14 08:47:21;;;;;;;5.30;2.40;;;10.20;92.90;;;;;;6116478;23;20376;-74
2023/04/14 08:50:06;;;;;;;8.10;2.80;;;10.30;92.50;;;;;;6115857;23;20875;-73
2023/04/14 08:52:34;;;;;;;4.70;2.00;;;10.50;91.20;;;;;;6092482;23;20469;-74
2023/04/14 08:55:03;;;;;;;5.40;2.07;;;10.50;88.90;;;;;;6093728;23;20448;-75
2023/04/14 08:57:33;;;;;;;8.47;2.40;;;10.60;80.10;;;;;;6118443;23;20454;-76
2023/04/14 09:00:03;;;;;;;8.20;2.87;;;10.70;81.70;;;;;;6070307;23;20380;-75
2023/04/14 09:02:31;;;;;;;8.00;2.43;;;10.80;74.60;;;;;;6115021;23;20447;-73
2023/04/14 09:04:58;;;;;;;8.63;2.87;;;10.90;79.70;;;;;;6090969;23;20387;-75
2023/04/14 09:07:24;;;;;;;6.30;2.23;;;10.90;76.70;;;;;;6115563;23;20412;-72
2023/04/14 09:09:51;;;;;;;5.10;2.77;;;11.00;72.20;;;;;;6113030;23;20380;-75
2023/04/14 09:12:19;;;;;;;5.60;2.47;;;11.10;69.60;;;;;;6064609;23;20410;-74
2023/04/14 09:14:45;;;;;;;5.17;2.10;;;11.10;72.20;;;;;;6091446;23;20383;-75
2023/04/14 09:17:12;;;;;;;9.37;4.67;;;11.10;70.00;;;;;;6095966;23;20377;-76
2023/04/14 09:19:40;;;;;;;5.87;2.40;;;11.10;71.00;;;;;;6115977;23;20384;-73
2023/04/14 09:22:12;;;;;;;5.20;2.40;;;11.30;67.50;;;;;;6095742;23;20436;-75
2023/04/14 09:24:39;;;;;;;7.10;2.43;;;11.40;65.30;;;;;;6116453;23;20369;-74
2023/04/14 09:27:06;;;;;;;7.00;3.23;;;11.40;64.50;;;;;;6118650;23;20409;-75
2023/04/14 09:29:32;;;;;;;5.07;2.43;;;11.30;64.60;;;;;;6094751;23;20365;-75
2023/04/14 09:31:58;;;;;;;7.87;2.80;;;11.50;65.50;;;;;;6119805;23;20405;-74
2023/04/14 09:34:24;;;;;;;4.90;2.20;;;11.60;65.70;;;;;;6126541;23;20164;-75
2023/04/14 09:37:08;;;;;;;6.17;2.30;;;11.70;64.30;;;;;;6090674;23;20437;-73
2023/04/14 09:39:46;;;;;;;5.87;1.53;;;11.80;61.70;;;;;;6090901;23;20391;-74
2023/04/14 09:42:12;;;;;;;9.23;1.37;;;11.80;56.60;;;;;;6092654;23;20405;-76
2023/04/14 09:44:53;;;;;;;9.80;2.73;;;11.80;56.60;;;;;;6064711;23;20468;-75
2023/04/14 09:47:21;;;;;;;6.07;1.93;;;11.80;55.80;;;;;;6038246;23;20385;-75
2023/04/14 09:49:57;;;;;;;9.10;2.40;;;11.90;56.10;;;;;;6039613;23;20405;-75
2023/04/14 09:52:37;;;;;;;6.57;2.23;;;11.90;55.30;;;;;;6037094;23;20433;-75
2023/04/14 09:55:08;;;;;;;9.00;2.53;;;12.00;55.60;;;;;;6096291;23;20389;-75
2023/04/14 09:57:41;;;;;;;6.53;2.03;;;12.00;55.90;;;;;;6038861;23;20417;-75
2023/04/14 10:00:14;;;;;;;6.30;1.97;;;12.20;56.30;;;;;;6039267;23;20393;-75
2023/04/14 10:03:06;;;;;;;6.50;2.30;;;12.30;56.20;;;;;;6039583;23;20425;-77
2023/04/14 10:05:33;;;;;;;3.90;1.63;;;12.40;54.60;;;;;;6038768;23;20416;-74
2023/04/14 10:08:02;;;;;;;4.17;1.73;;;12.50;54.40;;;;;;6059891;23;20392;-74
2023/04/14 10:10:28;;;;;;;5.77;1.90;;;12.50;54.00;;;;;;6062724;23;20153;-75
2023/04/14 10:12:55;;;;;;;5.00;2.03;;;12.60;54.00;;;;;;6064455;23;20448;-73
2023/04/14 10:15:21;;;;;;;4.37;1.43;;;12.50;52.60;;;;;;6083119;23;20849;-74
2023/04/14 10:17:47;;;;;;;4.37;2.47;;;12.60;53.10;;;;;;6127960;23;20412;-74
2023/04/14 10:20:15;;;;;;;6.50;2.10;;;12.70;52.50;;;;;;6118669;23;20376;-75
2023/04/14 10:22:41;;;;;;;4.30;1.90;;;12.80;52.70;;;;;;6093936;23;20206;-74
2023/04/14 10:25:08;;;;;;;5.07;2.27;;;12.80;53.20;;;;;;6115886;23;20403;-76
2023/04/14 10:27:35;;;;;;;5.40;2.20;;;12.90;52.30;;;;;;6092516;23;20396;-75
2023/04/14 10:30:05;;;;;;;5.13;1.70;;;13.00;52.50;;;;;;6116558;23;20433;-74
2023/04/14 10:32:34;;;;;;;6.90;2.63;;;13.00;51.80;;;;;;6125582;23;20443;-75
2023/04/14 10:35:07;;;;;;;5.83;1.70;;;13.00;51.10;;;;;;6092865;23;20380;-75
2023/04/14 10:37:34;;;;;;;6.80;1.80;;;13.00;51.20;;;;;;6091715;23;20517;-75
2023/04/14 10:40:06;;;;;;;3.20;2.00;;;13.10;51.50;;;;;;6094410;23;20494;-76
2023/04/14 10:42:52;;;;;;;5.30;2.60;;;13.10;51.10;;;;;;6119178;23;20491;-74
2023/04/14 10:45:17;;;;;;;5.23;2.00;;;13.30;51.10;;;;;;6080009;23;20467;-75
2023/04/14 10:47:44;;;;;;;4.97;1.80;;;13.30;50.80;;;;;;6066054;23;20911;-75
2023/04/14 10:50:21;;;;;;;4.40;2.07;;;13.40;50.20;;;;;;6094318;23;20151;-75
2023/04/14 10:52:55;;;;;;;5.53;2.00;;;13.40;50.00;;;;;;6097615;23;20420;-76
2023/04/14 10:55:23;;;;;;;4.57;2.70;;;13.50;49.60;;;;;;6090043;23;20444;-75
2023/04/14 10:57:49;;;;;;;5.00;2.47;;;13.40;49.50;;;;;;6089573;23;20392;-74
2023/04/14 11:00:25;;;;;;;6.50;1.83;;;13.60;49.10;;;;;;6091998;23;20421;-75
2023/04/14 11:03:06;;;;;;;5.70;1.60;;;13.70;49.40;;;;;;6120906;23;20209;-73
2023/04/14 11:05:40;;;;;;;4.50;1.50;;;13.80;49.10;;;;;;6097478;23;20380;-74
2023/04/14 11:08:14;;;;;;;5.27;1.90;;;13.90;48.80;;;;;;6096413;23;20401;-75
2023/04/14 11:10:48;;;;;;;4.00;1.63;;;14.00;47.80;;;;;;6094991;23;20392;-74
2023/04/14 11:13:14;;;;;;;4.40;2.10;;;13.90;48.70;;;;;;6094219;23;20424;-76
2023/04/14 11:15:44;;;;;;;4.00;2.87;;;13.80;48.40;;;;;;6120142;23;20377;-74
2023/04/14 11:18:13;;;;;;;2.97;1.70;;;13.80;48.50;;;;;;6117167;23;20479;-74
2023/04/14 11:20:40;;;;;;;6.47;1.80;;;13.70;48.30;;;;;;6093141;23;20365;-74
2023/04/14 11:23:07;;;;;;;3.57;1.83;;;13.80;48.00;;;;;;6119112;23;20443;-75
2023/04/14 11:25:33;;;;;;;5.17;1.73;;;14.00;47.20;;;;;;6118489;23;20403;-74
2023/04/14 11:28:03;;;;;;;4.27;1.83;;;14.20;47.30;;;;;;6098575;23;20382;-74
2023/04/14 11:30:32;;;;;;;6.20;2.00;;;14.40;46.90;;;;;;6096664;23;20144;-74
2023/04/14 11:33:03;;;;;;;1.87;1.20;;;14.50;47.00;;;;;;6090638;23;20410;-73
2023/04/14 11:35:30;;;;;;;4.33;1.63;;;14.60;46.60;;;;;;6067046;23;20476;-74
2023/04/14 11:37:58;;;;;;;2.43;1.23;;;14.80;44.00;;;;;;6092137;23;20416;-74
2023/04/14 11:40:35;;;;;;;4.87;1.87;;;14.90;43.00;;;;;;6070931;23;20387;-75
2023/04/14 11:43:05;;;;;;;4.30;2.20;;;15.00;43.50;;;;;;6094304;23;20428;-75
2023/04/14 11:45:34;;;;;;;3.87;2.00;;;15.00;43.20;;;;;;6069990;23;20384;-74
2023/04/14 11:48:06;;;;;;;7.00;1.97;;;15.10;42.60;;;;;;6044122;23;20463;-75
2023/04/14 11:50:41;;;;;;;4.17;1.30;;;15.10;42.20;;;;;;6064841;23;20885;-73
2023/04/14 11:53:11;;;;;;;6.20;1.87;;;15.00;42.30;;;;;;6045968;23;20495;-75
2023/04/14 11:55:46;;;;;;;4.17;2.33;;;15.00;42.70;;;;;;6067928;23;20434;-73
2023/04/14 11:58:22;;;;;;;3.83;1.30;;;14.80;42.10;;;;;;6051130;23;20393;-75
2023/04/14 12:00:51;;;;;;;5.00;1.63;;;14.80;42.10;;;;;;6067227;23;20373;-76
2023/04/14 12:03:20;;;;;;;3.37;1.50;;;15.00;42.70;;;;;;6096492;23;20436;-73
2023/04/14 12:05:47;;;;;;;6.23;1.47;;;15.10;41.70;;;;;;6072617;23;20385;-75
2023/04/14 12:08:13;;;;;;;3.17;1.10;;;15.00;41.20;;;;;;6096619;23;20391;-75
2023/04/14 12:10:41;;;;;;;4.23;1.83;;;15.30;41.30;;;;;;6098459;23;20393;-75
2023/04/14 12:13:29;;;;;;;6.57;1.63;;;15.20;40.80;;;;;;6073970;23;20401;-75
2023/04/14 12:15:58;;;;;;;7.57;2.37;;;15.20;41.50;;;;;;6120849;23;20431;-75
2023/04/14 12:18:24;;;;;;;4.10;1.50;;;15.30;41.60;;;;;;6093206;23;20436;-74
2023/04/14 12:21:00;;;;;;;6.83;1.80;;;15.30;42.10;;;;;;6103668;23;20357;-74
2023/04/14 12:23:26;;;;;;;2.60;1.77;;;15.40;40.30;;;;;;6095928;23;20428;-74
2023/04/14 12:25:53;;;;;;;2.70;1.53;;;15.40;40.10;;;;;;6096514;23;20393;-75
2023/04/14 12:28:33;;;;;;;3.10;1.47;;;15.50;40.00;;;;;;6094886;23;20368;-74
2023/04/14 12:31:02;;;;;;;7.37;1.30;;;15.70;39.60;;;;;;6094330;23;20167;-74
2023/04/14 12:33:29;;;;;;;3.17;1.47;;;15.70;39.60;;;;;;6094035;23;20460;-75
2023/04/14 12:36:06;;;;;;;7.20;3.50;;;15.70;39.20;;;;;;6098017;23;20377;-74
2023/04/14 12:38:33;;;;;;;4.13;1.50;;;15.60;39.00;;;;;;6120107;23;20387;-75
2023/04/14 12:41:00;;;;;;;6.80;1.83;;;15.80;38.80;;;;;;6093852;23;20393;-75
2023/04/14 12:43:39;;;;;;;5.17;1.30;;;16.00;37.80;;;;;;6128036;23;20424;-75
2023/04/14 12:46:09;;;;;;;4.00;1.70;;;16.20;37.10;;;;;;6102770;23;20377;-74
2023/04/14 12:48:42;;;;;;;3.93;1.73;;;16.10;37.40;;;;;;6065705;23;20410;-74
2023/04/14 12:51:10;;;;;;;3.90;1.50;;;16.10;36.70;;;;;;6042953;23;20417;-74
2023/04/14 12:53:36;;;;;;;3.10;1.33;;;16.00;37.40;;;;;;6041964;23;20400;-74
2023/04/14 12:56:20;;;;;;;3.40;1.57;;;16.00;37.60;;;;;;6042119;23;20377;-74
2023/04/14 12:58:47;;;;;;;3.50;1.47;;;16.20;36.90;;;;;;6072438;23;20907;-73
2023/04/14 13:01:15;;;;;;;4.50;1.37;;;16.20;36.60;;;;;;6017162;23;20417;-75
2023/04/14 13:03:48;;;;;;;4.57;1.20;;;16.20;36.30;;;;;;6040643;23;20920;-74